sensor_id;sensor_type;location;lat;lon;timestamp;P1;durP1;ratioP1;P2;durP2;ratioP2
54464;SDS011;40374;49.480;20.016;2022-08-21T00:01:51;246.75;;;51.55;;
54464;SDS011;40374;49.480;20.016;2022-08-21T00:04:19;209.27;;;52.92;;
54464;SDS011;40374;49.480;20.016;2022-08-21T00:06:49;236.85;;;56.00;;
54464;SDS011;40374;49.480;20.016;2022-08-21T00:09:18;207.57;;;54.55;;
54464;SDS011;40374;49.480;20.016;2022-08-21T00:11:47;201.48;;;52.45;;
54464;SDS011;40374;49.480;20.016;2022-08-21T00:14:14;181.50;;;49.97;;
54464;SDS011;40374;49.480;20.016;2022-08-21T00:16:42;178.52;;;51.65;;
54464;SDS011;40374;49.480;20.016;2022-08-21T00:19:10;174.88;;;51.20;;
54464;SDS011;40374;49.480;20.016;2022-08-21T00:21:37;173.68;;;52.00;;
54464;SDS011;40374;49.480;20.016;2022-08-21T00:24:09;194.80;;;51.30;;
54464;SDS011;40374;49.480;20.016;2022-08-21T00:26:38;168.15;;;50.13;;
54464;SDS011;40374;49.480;20.016;2022-08-21T00:29:05;180.95;;;50.90;;
54464;SDS011;40374;49.480;20.016;2022-08-21T00:31:33;170.00;;;50.15;;
54464;SDS011;40374;49.480;20.016;2022-08-21T00:34:00;146.35;;;47.13;;
54464;SDS011;40374;49.480;20.016;2022-08-21T00:36:28;151.45;;;49.05;;
54464;SDS011;40374;49.480;20.016;2022-08-21T00:38:56;165.02;;;48.60;;
54464;SDS011;40374;49.480;20.016;2022-08-21T00:41:24;153.73;;;45.53;;
54464;SDS011;40374;49.480;20.016;2022-08-21T00:44:08;159.15;;;44.92;;
54464;SDS011;40374;49.480;20.016;2022-08-21T00:46:38;144.25;;;43.95;;
54464;SDS011;40374;49.480;20.016;2022-08-21T00:49:07;138.73;;;43.33;;
54464;SDS011;40374;49.480;20.016;2022-08-21T00:51:39;177.88;;;42.20;;
54464;SDS011;40374;49.480;20.016;2022-08-21T00:54:14;222.23;;;44.65;;
54464;SDS011;40374;49.480;20.016;2022-08-21T00:56:46;162.02;;;43.55;;
54464;SDS011;40374;49.480;20.016;2022-08-21T00:59:18;162.18;;;41.58;;
54464;SDS011;40374;49.480;20.016;2022-08-21T01:01:47;182.30;;;43.72;;
54464;SDS011;40374;49.480;20.016;2022-08-21T01:04:16;151.80;;;39.15;;
54464;SDS011;40374;49.480;20.016;2022-08-21T01:06:44;144.07;;;40.13;;
54464;SDS011;40374;49.480;20.016;2022-08-21T01:09:12;151.98;;;42.08;;
54464;SDS011;40374;49.480;20.016;2022-08-21T01:11:40;148.10;;;42.88;;
54464;SDS011;40374;49.480;20.016;2022-08-21T01:14:12;165.57;;;41.00;;
54464;SDS011;40374;49.480;20.016;2022-08-21T01:16:42;159.95;;;42.05;;
54464;SDS011;40374;49.480;20.016;2022-08-21T01:19:12;128.80;;;41.45;;
54464;SDS011;40374;49.480;20.016;2022-08-21T01:21:41;135.35;;;41.88;;
54464;SDS011;40374;49.480;20.016;2022-08-21T01:24:10;133.48;;;39.55;;
54464;SDS011;40374;49.480;20.016;2022-08-21T01:26:38;117.63;;;40.50;;
54464;SDS011;40374;49.480;20.016;2022-08-21T01:29:09;129.30;;;41.30;;
54464;SDS011;40374;49.480;20.016;2022-08-21T01:31:43;155.38;;;43.95;;
54464;SDS011;40374;49.480;20.016;2022-08-21T01:34:12;138.10;;;41.58;;
54464;SDS011;40374;49.480;20.016;2022-08-21T01:36:43;159.68;;;43.92;;
54464;SDS011;40374;49.480;20.016;2022-08-21T01:39:12;149.55;;;44.67;;
54464;SDS011;40374;49.480;20.016;2022-08-21T01:41:42;157.57;;;41.42;;
54464;SDS011;40374;49.480;20.016;2022-08-21T01:44:09;121.85;;;40.20;;
54464;SDS011;40374;49.480;20.016;2022-08-21T01:46:37;134.15;;;43.10;;
54464;SDS011;40374;49.480;20.016;2022-08-21T01:49:05;125.32;;;40.20;;
54464;SDS011;40374;49.480;20.016;2022-08-21T01:51:32;135.10;;;38.42;;
54464;SDS011;40374;49.480;20.016;2022-08-21T01:54:00;107.55;;;36.65;;
54464;SDS011;40374;49.480;20.016;2022-08-21T01:56:28;106.80;;;37.17;;
54464;SDS011;40374;49.480;20.016;2022-08-21T01:58:55;101.22;;;37.65;;
54464;SDS011;40374;49.480;20.016;2022-08-21T02:01:23;104.97;;;39.88;;
54464;SDS011;40374;49.480;20.016;2022-08-21T02:03:51;115.40;;;41.70;;
54464;SDS011;40374;49.480;20.016;2022-08-21T02:06:18;98.85;;;39.08;;
54464;SDS011;40374;49.480;20.016;2022-08-21T02:08:46;103.05;;;37.92;;
54464;SDS011;40374;49.480;20.016;2022-08-21T02:11:14;101.32;;;38.40;;
54464;SDS011;40374;49.480;20.016;2022-08-21T02:13:41;95.93;;;37.10;;
54464;SDS011;40374;49.480;20.016;2022-08-21T02:16:10;106.35;;;40.00;;
54464;SDS011;40374;49.480;20.016;2022-08-21T02:18:43;115.05;;;39.33;;
54464;SDS011;40374;49.480;20.016;2022-08-21T02:21:10;108.88;;;39.20;;
54464;SDS011;40374;49.480;20.016;2022-08-21T02:23:38;106.95;;;40.72;;
54464;SDS011;40374;49.480;20.016;2022-08-21T02:26:06;113.35;;;39.05;;
54464;SDS011;40374;49.480;20.016;2022-08-21T02:28:35;109.65;;;38.33;;
54464;SDS011;40374;49.480;20.016;2022-08-21T02:31:03;124.50;;;37.97;;
54464;SDS011;40374;49.480;20.016;2022-08-21T02:33:31;103.88;;;37.35;;
54464;SDS011;40374;49.480;20.016;2022-08-21T02:35:59;97.65;;;36.40;;
54464;SDS011;40374;49.480;20.016;2022-08-21T02:38:29;97.45;;;36.72;;
54464;SDS011;40374;49.480;20.016;2022-08-21T02:40:58;96.78;;;35.95;;
54464;SDS011;40374;49.480;20.016;2022-08-21T02:43:26;104.85;;;38.50;;
54464;SDS011;40374;49.480;20.016;2022-08-21T02:45:56;102.03;;;37.25;;
54464;SDS011;40374;49.480;20.016;2022-08-21T02:48:25;96.03;;;36.13;;
54464;SDS011;40374;49.480;20.016;2022-08-21T02:51:08;93.65;;;36.88;;
54464;SDS011;40374;49.480;20.016;2022-08-21T02:53:38;92.90;;;35.70;;
54464;SDS011;40374;49.480;20.016;2022-08-21T02:56:08;107.60;;;36.80;;
54464;SDS011;40374;49.480;20.016;2022-08-21T02:58:40;89.82;;;36.10;;
54464;SDS011;40374;49.480;20.016;2022-08-21T03:01:12;116.72;;;40.72;;
54464;SDS011;40374;49.480;20.016;2022-08-21T03:03:41;148.15;;;41.20;;
54464;SDS011;40374;49.480;20.016;2022-08-21T03:06:12;106.25;;;40.80;;
54464;SDS011;40374;49.480;20.016;2022-08-21T03:08:42;95.65;;;38.70;;
54464;SDS011;40374;49.480;20.016;2022-08-21T03:11:12;119.20;;;40.78;;
54464;SDS011;40374;49.480;20.016;2022-08-21T03:13:41;103.35;;;40.40;;
54464;SDS011;40374;49.480;20.016;2022-08-21T03:16:09;129.48;;;42.78;;
54464;SDS011;40374;49.480;20.016;2022-08-21T03:18:37;110.03;;;42.45;;
54464;SDS011;40374;49.480;20.016;2022-08-21T03:21:05;113.03;;;42.33;;
54464;SDS011;40374;49.480;20.016;2022-08-21T03:23:33;115.63;;;41.92;;
54464;SDS011;40374;49.480;20.016;2022-08-21T03:26:01;119.68;;;39.92;;
54464;SDS011;40374;49.480;20.016;2022-08-21T03:28:28;115.55;;;39.00;;
54464;SDS011;40374;49.480;20.016;2022-08-21T03:30:56;90.57;;;35.97;;
54464;SDS011;40374;49.480;20.016;2022-08-21T03:33:23;68.07;;;30.95;;
54464;SDS011;40374;49.480;20.016;2022-08-21T03:35:56;79.70;;;34.50;;
54464;SDS011;40374;49.480;20.016;2022-08-21T03:38:31;91.72;;;36.72;;
54464;SDS011;40374;49.480;20.016;2022-08-21T03:41:01;85.30;;;35.58;;
54464;SDS011;40374;49.480;20.016;2022-08-21T03:43:29;137.80;;;39.40;;
54464;SDS011;40374;49.480;20.016;2022-08-21T03:46:02;117.32;;;39.10;;
54464;SDS011;40374;49.480;20.016;2022-08-21T03:48:31;136.90;;;40.83;;
54464;SDS011;40374;49.480;20.016;2022-08-21T03:50:59;224.32;;;43.78;;
54464;SDS011;40374;49.480;20.016;2022-08-21T03:53:27;367.95;;;43.45;;
54464;SDS011;40374;49.480;20.016;2022-08-21T03:55:54;289.30;;;47.53;;
54464;SDS011;40374;49.480;20.016;2022-08-21T03:58:23;328.10;;;41.30;;
54464;SDS011;40374;49.480;20.016;2022-08-21T04:00:53;204.77;;;36.67;;
54464;SDS011;40374;49.480;20.016;2022-08-21T04:03:23;313.70;;;39.55;;
54464;SDS011;40374;49.480;20.016;2022-08-21T04:05:52;200.15;;;33.28;;
54464;SDS011;40374;49.480;20.016;2022-08-21T04:08:19;371.15;;;38.25;;
54464;SDS011;40374;49.480;20.016;2022-08-21T04:10:50;306.80;;;36.80;;
54464;SDS011;40374;49.480;20.016;2022-08-21T04:13:19;373.05;;;39.75;;
54464;SDS011;40374;49.480;20.016;2022-08-21T04:15:48;391.33;;;39.50;;
54464;SDS011;40374;49.480;20.016;2022-08-21T04:18:19;279.85;;;38.50;;
54464;SDS011;40374;49.480;20.016;2022-08-21T04:20:47;364.77;;;41.42;;
54464;SDS011;40374;49.480;20.016;2022-08-21T04:23:18;200.00;;;34.65;;
54464;SDS011;40374;49.480;20.016;2022-08-21T04:25:50;266.50;;;38.60;;
54464;SDS011;40374;49.480;20.016;2022-08-21T04:28:20;255.80;;;37.60;;
54464;SDS011;40374;49.480;20.016;2022-08-21T04:30:50;208.48;;;36.45;;
54464;SDS011;40374;49.480;20.016;2022-08-21T04:33:19;200.48;;;34.58;;
54464;SDS011;40374;49.480;20.016;2022-08-21T04:35:48;118.70;;;33.45;;
54464;SDS011;40374;49.480;20.016;2022-08-21T04:38:16;97.60;;;33.47;;
54464;SDS011;40374;49.480;20.016;2022-08-21T04:40:44;90.28;;;31.92;;
54464;SDS011;40374;49.480;20.016;2022-08-21T04:43:12;95.65;;;32.15;;
54464;SDS011;40374;49.480;20.016;2022-08-21T04:45:41;152.10;;;35.75;;
54464;SDS011;40374;49.480;20.016;2022-08-21T04:48:13;78.95;;;32.30;;
54464;SDS011;40374;49.480;20.016;2022-08-21T04:50:49;84.20;;;32.03;;
54464;SDS011;40374;49.480;20.016;2022-08-21T04:53:37;201.20;;;34.28;;
54464;SDS011;40374;49.480;20.016;2022-08-21T04:56:11;110.60;;;31.48;;
54464;SDS011;40374;49.480;20.016;2022-08-21T04:58:43;129.23;;;30.55;;
54464;SDS011;40374;49.480;20.016;2022-08-21T05:01:12;105.40;;;32.00;;
54464;SDS011;40374;49.480;20.016;2022-08-21T05:03:42;66.82;;;28.15;;
54464;SDS011;40374;49.480;20.016;2022-08-21T05:06:12;87.20;;;29.05;;
54464;SDS011;40374;49.480;20.016;2022-08-21T05:08:41;62.40;;;29.02;;
54464;SDS011;40374;49.480;20.016;2022-08-21T05:11:10;54.97;;;26.67;;
54464;SDS011;40374;49.480;20.016;2022-08-21T05:13:38;57.72;;;25.10;;
54464;SDS011;40374;49.480;20.016;2022-08-21T05:16:08;39.78;;;24.45;;
54464;SDS011;40374;49.480;20.016;2022-08-21T05:18:36;55.53;;;22.92;;
54464;SDS011;40374;49.480;20.016;2022-08-21T05:21:03;51.20;;;22.48;;
54464;SDS011;40374;49.480;20.016;2022-08-21T05:23:31;40.20;;;22.48;;
54464;SDS011;40374;49.480;20.016;2022-08-21T05:25:59;37.20;;;21.77;;
54464;SDS011;40374;49.480;20.016;2022-08-21T05:28:27;36.75;;;23.20;;
54464;SDS011;40374;49.480;20.016;2022-08-21T05:30:55;48.72;;;25.48;;
54464;SDS011;40374;49.480;20.016;2022-08-21T05:33:23;50.22;;;26.73;;
54464;SDS011;40374;49.480;20.016;2022-08-21T05:35:51;39.05;;;25.30;;
54464;SDS011;40374;49.480;20.016;2022-08-21T05:38:23;113.53;;;25.20;;
54464;SDS011;40374;49.480;20.016;2022-08-21T05:40:53;78.82;;;25.42;;
54464;SDS011;40374;49.480;20.016;2022-08-21T05:43:20;48.00;;;25.35;;
54464;SDS011;40374;49.480;20.016;2022-08-21T05:45:48;36.33;;;23.40;;
54464;SDS011;40374;49.480;20.016;2022-08-21T05:48:18;31.38;;;21.98;;
54464;SDS011;40374;49.480;20.016;2022-08-21T05:50:48;33.67;;;22.65;;
54464;SDS011;40374;49.480;20.016;2022-08-21T05:53:18;34.95;;;21.65;;
54464;SDS011;40374;49.480;20.016;2022-08-21T05:55:46;34.53;;;22.20;;
54464;SDS011;40374;49.480;20.016;2022-08-21T05:58:16;34.90;;;23.02;;
54464;SDS011;40374;49.480;20.016;2022-08-21T06:00:46;33.10;;;23.90;;
54464;SDS011;40374;49.480;20.016;2022-08-21T06:03:16;40.95;;;24.73;;
54464;SDS011;40374;49.480;20.016;2022-08-21T06:05:47;41.33;;;24.98;;
54464;SDS011;40374;49.480;20.016;2022-08-21T06:08:15;37.90;;;23.95;;
54464;SDS011;40374;49.480;20.016;2022-08-21T06:10:44;29.67;;;19.55;;
54464;SDS011;40374;49.480;20.016;2022-08-21T06:13:13;41.40;;;23.55;;
54464;SDS011;40374;49.480;20.016;2022-08-21T06:15:42;29.40;;;19.58;;
54464;SDS011;40374;49.480;20.016;2022-08-21T06:18:10;27.50;;;19.30;;
54464;SDS011;40374;49.480;20.016;2022-08-21T06:20:39;29.58;;;19.20;;
54464;SDS011;40374;49.480;20.016;2022-08-21T06:23:07;27.70;;;17.95;;
54464;SDS011;40374;49.480;20.016;2022-08-21T06:25:34;22.10;;;16.58;;
54464;SDS011;40374;49.480;20.016;2022-08-21T06:28:03;23.83;;;16.75;;
54464;SDS011;40374;49.480;20.016;2022-08-21T06:30:33;21.17;;;16.20;;
54464;SDS011;40374;49.480;20.016;2022-08-21T06:33:03;26.52;;;17.40;;
54464;SDS011;40374;49.480;20.016;2022-08-21T06:35:31;27.67;;;18.20;;
54464;SDS011;40374;49.480;20.016;2022-08-21T06:37:58;28.35;;;19.10;;
54464;SDS011;40374;49.480;20.016;2022-08-21T06:40:27;33.25;;;22.15;;
54464;SDS011;40374;49.480;20.016;2022-08-21T06:42:56;34.03;;;22.52;;
54464;SDS011;40374;49.480;20.016;2022-08-21T06:45:27;26.02;;;19.50;;
54464;SDS011;40374;49.480;20.016;2022-08-21T06:47:58;30.25;;;19.00;;
54464;SDS011;40374;49.480;20.016;2022-08-21T06:50:26;28.52;;;18.92;;
54464;SDS011;40374;49.480;20.016;2022-08-21T06:53:01;30.70;;;20.42;;
54464;SDS011;40374;49.480;20.016;2022-08-21T06:55:34;33.45;;;19.88;;
54464;SDS011;40374;49.480;20.016;2022-08-21T06:58:01;39.83;;;22.80;;
54464;SDS011;40374;49.480;20.016;2022-08-21T07:00:30;35.10;;;22.13;;
54464;SDS011;40374;49.480;20.016;2022-08-21T07:02:59;31.80;;;21.52;;
54464;SDS011;40374;49.480;20.016;2022-08-21T07:05:28;34.15;;;21.08;;
54464;SDS011;40374;49.480;20.016;2022-08-21T07:07:56;32.33;;;20.85;;
54464;SDS011;40374;49.480;20.016;2022-08-21T07:10:27;29.15;;;18.63;;
54464;SDS011;40374;49.480;20.016;2022-08-21T07:12:55;35.03;;;21.25;;
54464;SDS011;40374;49.480;20.016;2022-08-21T07:15:30;30.15;;;19.77;;
54464;SDS011;40374;49.480;20.016;2022-08-21T07:17:58;34.47;;;19.98;;
54464;SDS011;40374;49.480;20.016;2022-08-21T07:20:30;34.08;;;21.08;;
54464;SDS011;40374;49.480;20.016;2022-08-21T07:23:00;34.45;;;20.70;;
54464;SDS011;40374;49.480;20.016;2022-08-21T07:25:30;31.27;;;19.45;;
54464;SDS011;40374;49.480;20.016;2022-08-21T07:28:01;32.80;;;18.52;;
54464;SDS011;40374;49.480;20.016;2022-08-21T07:30:29;32.13;;;18.65;;
54464;SDS011;40374;49.480;20.016;2022-08-21T07:32:57;31.48;;;19.10;;
54464;SDS011;40374;49.480;20.016;2022-08-21T07:35:26;34.75;;;19.58;;
54464;SDS011;40374;49.480;20.016;2022-08-21T07:37:55;29.17;;;19.40;;
54464;SDS011;40374;49.480;20.016;2022-08-21T07:40:22;32.75;;;19.85;;
54464;SDS011;40374;49.480;20.016;2022-08-21T07:42:52;33.65;;;21.08;;
54464;SDS011;40374;49.480;20.016;2022-08-21T07:45:21;37.10;;;23.95;;
54464;SDS011;40374;49.480;20.016;2022-08-21T07:47:54;41.60;;;24.35;;
54464;SDS011;40374;49.480;20.016;2022-08-21T07:50:24;49.33;;;26.88;;
54464;SDS011;40374;49.480;20.016;2022-08-21T07:52:52;48.15;;;25.45;;
54464;SDS011;40374;49.480;20.016;2022-08-21T07:55:21;57.10;;;25.02;;
54464;SDS011;40374;49.480;20.016;2022-08-21T07:57:49;53.50;;;26.17;;
54464;SDS011;40374;49.480;20.016;2022-08-21T08:00:19;45.58;;;25.38;;
54464;SDS011;40374;49.480;20.016;2022-08-21T08:02:51;42.67;;;25.23;;
54464;SDS011;40374;49.480;20.016;2022-08-21T08:05:21;54.85;;;26.67;;
54464;SDS011;40374;49.480;20.016;2022-08-21T08:07:51;49.17;;;24.05;;
54464;SDS011;40374;49.480;20.016;2022-08-21T08:10:19;48.38;;;26.65;;
54464;SDS011;40374;49.480;20.016;2022-08-21T08:12:48;47.30;;;25.05;;
54464;SDS011;40374;49.480;20.016;2022-08-21T08:15:26;36.40;;;21.88;;
54464;SDS011;40374;49.480;20.016;2022-08-21T08:17:55;45.33;;;22.38;;
54464;SDS011;40374;49.480;20.016;2022-08-21T08:20:30;43.50;;;25.35;;
54464;SDS011;40374;49.480;20.016;2022-08-21T08:22:58;45.53;;;25.70;;
54464;SDS011;40374;49.480;20.016;2022-08-21T08:25:30;42.20;;;25.05;;
54464;SDS011;40374;49.480;20.016;2022-08-21T08:28:04;41.70;;;23.92;;
54464;SDS011;40374;49.480;20.016;2022-08-21T08:30:44;47.72;;;26.25;;
54464;SDS011;40374;49.480;20.016;2022-08-21T08:33:16;42.25;;;24.65;;
54464;SDS011;40374;49.480;20.016;2022-08-21T08:35:48;44.92;;;25.90;;
54464;SDS011;40374;49.480;20.016;2022-08-21T08:38:18;43.33;;;25.17;;
54464;SDS011;40374;49.480;20.016;2022-08-21T08:41:10;49.17;;;25.55;;
54464;SDS011;40374;49.480;20.016;2022-08-21T08:43:58;43.13;;;24.77;;
54464;SDS011;40374;49.480;20.016;2022-08-21T08:46:46;46.97;;;24.30;;
54464;SDS011;40374;49.480;20.016;2022-08-21T08:51:52;51.28;;;28.08;;
54464;SDS011;40374;49.480;20.016;2022-08-21T08:54:28;53.65;;;29.08;;
54464;SDS011;40374;49.480;20.016;2022-08-21T08:57:07;48.10;;;27.83;;
54464;SDS011;40374;49.480;20.016;2022-08-21T08:59:39;44.50;;;27.17;;
54464;SDS011;40374;49.480;20.016;2022-08-21T09:02:11;48.22;;;25.88;;
54464;SDS011;40374;49.480;20.016;2022-08-21T09:04:39;49.05;;;25.38;;
54464;SDS011;40374;49.480;20.016;2022-08-21T09:10:04;47.65;;;27.08;;
54464;SDS011;40374;49.480;20.016;2022-08-21T09:18:54;37.30;;;24.42;;
54464;SDS011;40374;49.480;20.016;2022-08-21T09:27:10;43.75;;;25.00;;
54464;SDS011;40374;49.480;20.016;2022-08-21T09:29:42;48.83;;;25.20;;
54464;SDS011;40374;49.480;20.016;2022-08-21T09:32:18;46.42;;;25.65;;
54464;SDS011;40374;49.480;20.016;2022-08-21T09:37:45;51.10;;;25.20;;
54464;SDS011;40374;49.480;20.016;2022-08-21T09:40:21;44.13;;;24.23;;
54464;SDS011;40374;49.480;20.016;2022-08-21T09:43:14;44.38;;;24.45;;
54464;SDS011;40374;49.480;20.016;2022-08-21T09:45:50;50.42;;;25.35;;
54464;SDS011;40374;49.480;20.016;2022-08-21T09:48:40;48.75;;;25.50;;
54464;SDS011;40374;49.480;20.016;2022-08-21T09:51:29;44.72;;;24.95;;
54464;SDS011;40374;49.480;20.016;2022-08-21T09:56:36;51.47;;;26.98;;
54464;SDS011;40374;49.480;20.016;2022-08-21T09:59:42;52.05;;;26.33;;
54464;SDS011;40374;49.480;20.016;2022-08-21T10:02:23;52.90;;;26.48;;
54464;SDS011;40374;49.480;20.016;2022-08-21T10:05:15;49.78;;;27.58;;
54464;SDS011;40374;49.480;20.016;2022-08-21T10:07:48;45.13;;;27.20;;
54464;SDS011;40374;49.480;20.016;2022-08-21T10:15:51;52.10;;;29.00;;
54464;SDS011;40374;49.480;20.016;2022-08-21T10:18:41;50.53;;;29.42;;
54464;SDS011;40374;49.480;20.016;2022-08-21T10:21:23;56.72;;;27.65;;
54464;SDS011;40374;49.480;20.016;2022-08-21T10:24:03;46.85;;;27.20;;
54464;SDS011;40374;49.480;20.016;2022-08-21T10:27:13;53.40;;;28.85;;
54464;SDS011;40374;49.480;20.016;2022-08-21T10:30:15;56.72;;;29.52;;
54464;SDS011;40374;49.480;20.016;2022-08-21T10:33:48;57.17;;;28.83;;
54464;SDS011;40374;49.480;20.016;2022-08-21T10:36:02;54.67;;;30.92;;
54464;SDS011;40374;49.480;20.016;2022-08-21T10:38:42;54.10;;;28.52;;
54464;SDS011;40374;49.480;20.016;2022-08-21T10:44:42;61.17;;;31.52;;
54464;SDS011;40374;49.480;20.016;2022-08-21T10:49:58;61.42;;;29.63;;
54464;SDS011;40374;49.480;20.016;2022-08-21T10:52:45;47.97;;;27.92;;
54464;SDS011;40374;49.480;20.016;2022-08-21T10:55:21;48.95;;;27.58;;
54464;SDS011;40374;49.480;20.016;2022-08-21T10:58:01;44.72;;;26.20;;
54464;SDS011;40374;49.480;20.016;2022-08-21T11:00:43;47.67;;;27.17;;
54464;SDS011;40374;49.480;20.016;2022-08-21T11:06:21;54.00;;;29.33;;
54464;SDS011;40374;49.480;20.016;2022-08-21T11:08:52;56.45;;;29.20;;
54464;SDS011;40374;49.480;20.016;2022-08-21T11:11:35;56.92;;;28.70;;
54464;SDS011;40374;49.480;20.016;2022-08-21T11:19:42;51.97;;;30.92;;
54464;SDS011;40374;49.480;20.016;2022-08-21T11:22:18;54.95;;;28.00;;
54464;SDS011;40374;49.480;20.016;2022-08-21T11:24:52;54.87;;;29.63;;
54464;SDS011;40374;49.480;20.016;2022-08-21T11:30:11;40.85;;;24.20;;
54464;SDS011;40374;49.480;20.016;2022-08-21T11:38:40;42.47;;;23.05;;
54464;SDS011;40374;49.480;20.016;2022-08-21T11:44:45;33.63;;;21.00;;
54464;SDS011;40374;49.480;20.016;2022-08-21T11:46:58;20.65;;;10.70;;
54464;SDS011;40374;49.480;20.016;2022-08-21T11:50:02;10.18;;;7.13;;
54464;SDS011;40374;49.480;20.016;2022-08-21T11:52:34;5.80;;;4.15;;
54464;SDS011;40374;49.480;20.016;2022-08-21T11:57:51;1.98;;;1.70;;
54464;SDS011;40374;49.480;20.016;2022-08-21T12:00:33;1.90;;;1.67;;
54464;SDS011;40374;49.480;20.016;2022-08-21T12:03:11;2.45;;;2.25;;
54464;SDS011;40374;49.480;20.016;2022-08-21T12:05:53;3.40;;;2.47;;
54464;SDS011;40374;49.480;20.016;2022-08-21T12:08:29;4.60;;;2.75;;
54464;SDS011;40374;49.480;20.016;2022-08-21T12:16:37;7.47;;;4.65;;
54464;SDS011;40374;49.480;20.016;2022-08-21T12:21:53;4.70;;;3.20;;
54464;SDS011;40374;49.480;20.016;2022-08-21T12:26:59;5.70;;;3.50;;
54464;SDS011;40374;49.480;20.016;2022-08-21T12:29:49;8.25;;;4.43;;
54464;SDS011;40374;49.480;20.016;2022-08-21T12:35:01;7.93;;;5.32;;
54464;SDS011;40374;49.480;20.016;2022-08-21T12:40:59;23.92;;;6.15;;
54464;SDS011;40374;49.480;20.016;2022-08-21T12:43:29;11.93;;;6.30;;
54464;SDS011;40374;49.480;20.016;2022-08-21T12:46:02;9.90;;;5.95;;
54464;SDS011;40374;49.480;20.016;2022-08-21T12:51:30;7.45;;;5.80;;
54464;SDS011;40374;49.480;20.016;2022-08-21T12:54:08;10.70;;;5.45;;
54464;SDS011;40374;49.480;20.016;2022-08-21T12:56:35;8.35;;;5.63;;
54464;SDS011;40374;49.480;20.016;2022-08-21T12:59:07;6.22;;;4.90;;
54464;SDS011;40374;49.480;20.016;2022-08-21T13:01:39;13.05;;;4.30;;
54464;SDS011;40374;49.480;20.016;2022-08-21T13:04:36;7.13;;;4.20;;
54464;SDS011;40374;49.480;20.016;2022-08-21T13:07:07;5.05;;;3.70;;
54464;SDS011;40374;49.480;20.016;2022-08-21T13:09:47;4.65;;;3.72;;
54464;SDS011;40374;49.480;20.016;2022-08-21T13:12:18;8.82;;;3.47;;
54464;SDS011;40374;49.480;20.016;2022-08-21T13:14:48;5.78;;;3.28;;
54464;SDS011;40374;49.480;20.016;2022-08-21T13:17:20;8.70;;;3.58;;
54464;SDS011;40374;49.480;20.016;2022-08-21T13:22:23;5.03;;;4.13;;
54464;SDS011;40374;49.480;20.016;2022-08-21T13:25:02;10.48;;;5.03;;
54464;SDS011;40374;49.480;20.016;2022-08-21T13:27:33;6.38;;;4.40;;
54464;SDS011;40374;49.480;20.016;2022-08-21T13:30:04;5.57;;;4.30;;
54464;SDS011;40374;49.480;20.016;2022-08-21T13:32:33;7.25;;;4.30;;
54464;SDS011;40374;49.480;20.016;2022-08-21T13:35:18;5.88;;;4.50;;
54464;SDS011;40374;49.480;20.016;2022-08-21T13:37:49;7.53;;;4.10;;
54464;SDS011;40374;49.480;20.016;2022-08-21T13:40:30;6.10;;;4.70;;
54464;SDS011;40374;49.480;20.016;2022-08-21T13:43:19;9.85;;;5.28;;
54464;SDS011;40374;49.480;20.016;2022-08-21T13:45:53;4.82;;;4.30;;
54464;SDS011;40374;49.480;20.016;2022-08-21T13:48:22;8.23;;;4.82;;
54464;SDS011;40374;49.480;20.016;2022-08-21T13:50:53;6.72;;;5.20;;
54464;SDS011;40374;49.480;20.016;2022-08-21T13:54:12;12.43;;;6.32;;
54464;SDS011;40374;49.480;20.016;2022-08-21T13:59:10;15.32;;;6.97;;
54464;SDS011;40374;49.480;20.016;2022-08-21T14:01:48;12.63;;;7.45;;
54464;SDS011;40374;49.480;20.016;2022-08-21T14:04:22;13.13;;;7.22;;
54464;SDS011;40374;49.480;20.016;2022-08-21T14:06:53;12.18;;;7.88;;
54464;SDS011;40374;49.480;20.016;2022-08-21T14:12:11;11.32;;;7.65;;
54464;SDS011;40374;49.480;20.016;2022-08-21T14:14:49;12.55;;;7.10;;
54464;SDS011;40374;49.480;20.016;2022-08-21T14:17:27;20.98;;;9.27;;
54464;SDS011;40374;49.480;20.016;2022-08-21T14:20:00;13.73;;;8.65;;
54464;SDS011;40374;49.480;20.016;2022-08-21T14:22:31;13.10;;;8.70;;
54464;SDS011;40374;49.480;20.016;2022-08-21T14:25:12;11.90;;;7.53;;
54464;SDS011;40374;49.480;20.016;2022-08-21T14:27:44;9.40;;;7.32;;
54464;SDS011;40374;49.480;20.016;2022-08-21T14:30:36;10.05;;;6.70;;
54464;SDS011;40374;49.480;20.016;2022-08-21T14:33:13;11.45;;;6.45;;
54464;SDS011;40374;49.480;20.016;2022-08-21T14:35:52;9.70;;;7.10;;
54464;SDS011;40374;49.480;20.016;2022-08-21T14:38:21;14.75;;;7.28;;
54464;SDS011;40374;49.480;20.016;2022-08-21T14:40:51;10.05;;;6.05;;
54464;SDS011;40374;49.480;20.016;2022-08-21T14:43:21;8.30;;;6.43;;
54464;SDS011;40374;49.480;20.016;2022-08-21T14:45:49;9.40;;;6.45;;
54464;SDS011;40374;49.480;20.016;2022-08-21T14:48:17;9.00;;;7.00;;
54464;SDS011;40374;49.480;20.016;2022-08-21T14:50:45;9.73;;;6.28;;
54464;SDS011;40374;49.480;20.016;2022-08-21T14:53:13;7.03;;;5.97;;
54464;SDS011;40374;49.480;20.016;2022-08-21T14:55:40;9.85;;;6.30;;
54464;SDS011;40374;49.480;20.016;2022-08-21T14:58:26;8.00;;;6.88;;
54464;SDS011;40374;49.480;20.016;2022-08-21T15:00:54;13.57;;;7.68;;
54464;SDS011;40374;49.480;20.016;2022-08-21T15:03:24;9.63;;;6.85;;
54464;SDS011;40374;49.480;20.016;2022-08-21T15:05:52;9.85;;;6.50;;
54464;SDS011;40374;49.480;20.016;2022-08-21T15:08:21;12.05;;;8.05;;
54464;SDS011;40374;49.480;20.016;2022-08-21T15:10:49;15.63;;;7.80;;
54464;SDS011;40374;49.480;20.016;2022-08-21T15:13:39;11.88;;;7.72;;
54464;SDS011;40374;49.480;20.016;2022-08-21T15:16:08;9.73;;;8.15;;
54464;SDS011;40374;49.480;20.016;2022-08-21T15:18:38;13.32;;;9.00;;
54464;SDS011;40374;49.480;20.016;2022-08-21T15:21:07;12.07;;;7.70;;
54464;SDS011;40374;49.480;20.016;2022-08-21T15:23:35;11.13;;;9.13;;
54464;SDS011;40374;49.480;20.016;2022-08-21T15:26:09;16.75;;;10.52;;
54464;SDS011;40374;49.480;20.016;2022-08-21T15:28:37;12.85;;;8.93;;
54464;SDS011;40374;49.480;20.016;2022-08-21T15:31:06;17.63;;;9.73;;
54464;SDS011;40374;49.480;20.016;2022-08-21T15:33:36;14.40;;;9.85;;
54464;SDS011;40374;49.480;20.016;2022-08-21T15:36:03;13.43;;;9.63;;
54464;SDS011;40374;49.480;20.016;2022-08-21T15:38:32;13.68;;;9.65;;
54464;SDS011;40374;49.480;20.016;2022-08-21T15:41:01;10.27;;;8.25;;
54464;SDS011;40374;49.480;20.016;2022-08-21T15:44:04;10.93;;;9.52;;
54464;SDS011;40374;49.480;20.016;2022-08-21T15:46:28;17.25;;;10.30;;
54464;SDS011;40374;49.480;20.016;2022-08-21T15:48:56;12.50;;;8.40;;
54464;SDS011;40374;49.480;20.016;2022-08-21T15:51:28;12.00;;;8.45;;
54464;SDS011;40374;49.480;20.016;2022-08-21T15:53:55;9.65;;;7.30;;
54464;SDS011;40374;49.480;20.016;2022-08-21T15:56:24;8.32;;;6.30;;
54464;SDS011;40374;49.480;20.016;2022-08-21T15:58:58;9.63;;;5.82;;
54464;SDS011;40374;49.480;20.016;2022-08-21T16:01:28;9.00;;;6.50;;
54464;SDS011;40374;49.480;20.016;2022-08-21T16:04:20;9.68;;;5.32;;
54464;SDS011;40374;49.480;20.016;2022-08-21T16:06:50;10.05;;;4.97;;